Time;durP1;ratioP1;P1;durP2;ratioP2;P2;SDS_P1;SDS_P2;PMS_P1;PMS_P2;Temp;Humidity;BMP_temperature;BMP_pressure;BME280_temperature;BME280_humidity;BME280_pressure;Samples;Min_cycle;Max_cycle;Signal;HPM_P1;HPM_P2
2020/12/23 00:02:25;;;;;;;8.70;4.10;;;;;;;4.54;95.85;93782.59;6184768;23;19916;-90
2020/12/23 00:04:52;;;;;;;;;;;;;;;4.63;95.74;93802.97;6184759;23;20481;-91
2020/12/23 00:07:18;;;;;;;11.48;5.32;;;;;;;4.66;95.63;93802.63;6184627;23;19916;-91
2020/12/23 00:09:44;;;;;;;;;;;;;;;4.64;95.68;93809.63;6184889;23;20017;-90
2020/12/23 00:12:11;;;;;;;9.18;5.15;;;;;;;4.51;96.16;93808.34;6185386;23;19917;-90
2020/12/23 00:14:38;;;;;;;9.98;4.70;;;;;;;4.44;96.01;93799.75;6184116;23;20067;-91
2020/12/23 00:17:05;;;;;;;9.45;5.32;;;;;;;4.60;96.05;93824.44;6184117;23;20084;-91
2020/12/23 00:19:33;;;;;;;8.05;4.97;;;;;;;4.60;95.84;93821.88;6184411;23;20017;-90
2020/12/23 00:22:00;;;;;;;10.82;4.88;;;;;;;4.57;95.85;93818.84;6183705;23;20021;-91
2020/12/23 00:24:26;;;;;;;14.88;6.32;;;;;;;4.60;95.64;93826.97;6183902;23;20032;-92
2020/12/23 00:26:52;;;;;;;;;;;;;;;4.66;95.58;93828.88;6184715;23;20017;-90
2020/12/23 00:29:19;;;;;;;13.73;6.15;;;;;;;4.66;95.89;93825.53;6183727;23;19938;-91
2020/12/23 00:31:45;;;;;;;;;;;;;;;4.71;95.13;93832.72;6184729;23;20028;-91
2020/12/23 00:34:11;;;;;;;7.72;4.47;;;;;;;4.62;95.65;93826.78;6184133;23;19963;-92
2020/12/23 00:36:37;;;;;;;;;;;;;;;4.63;95.81;93831.72;6184982;23;20017;-91
2020/12/23 00:39:04;;;;;;;9.60;4.50;;;;;;;4.58;95.81;93823.75;6184210;23;20334;-90
2020/12/23 00:41:31;;;;;;;12.27;4.07;;;;;;;4.55;95.72;93821.56;6183942;23;20021;-91
2020/12/23 00:43:57;;;;;;;6.90;4.78;;;;;;;4.61;95.61;93825.19;6183693;23;20067;-90
2020/12/23 00:46:23;;;;;;;7.30;3.10;;;;;;;4.58;96.03;93823.75;6184419;23;20017;-91
2020/12/23 00:48:50;;;;;;;8.25;4.88;;;;;;;4.63;95.56;93821.56;6183954;23;20021;-89
2020/12/23 00:51:16;;;;;;;;;;;;;;;4.63;95.85;93818.22;6184604;23;20023;-91
2020/12/23 00:53:43;;;;;;;8.25;5.05;;;;;;;4.60;96.03;93821.06;6183964;23;20245;-91
2020/12/23 00:56:10;;;;;;;9.32;3.47;;;;;;;4.65;96.46;93829.03;6183710;23;20021;-90
2020/12/23 00:58:37;;;;;;;10.48;4.07;;;;;;;4.67;95.85;93817.75;6184314;23;20017;-90
2020/12/23 01:01:04;;;;;;;10.63;4.65;;;;;;;4.63;95.59;93808.81;6184297;23;20017;-91
2020/12/23 01:03:30;;;;;;;6.85;3.95;;;;;;;4.69;95.60;93815.03;6184328;23;20017;-88
2020/12/23 01:05:56;;;;;;;7.72;5.05;;;;;;;4.69;95.38;93817.59;6183838;23;20477;-91
2020/12/23 01:08:22;;;;;;;;;;;;;;;4.73;95.07;93818.88;6184554;23;20084;-90
2020/12/23 01:10:48;;;;;;;20.30;5.30;;;;;;;4.67;95.85;93817.75;6185636;23;20300;-89
2020/12/23 01:13:15;;;;;;;;;;;;;;;4.75;95.21;93813.59;6186608;23;20021;-91
2020/12/23 01:15:43;;;;;;;8.98;4.28;;;;;;;4.72;95.50;93812.16;6185299;23;19920;-91
2020/12/23 01:18:09;;;;;;;5.72;4.10;;;;;;;4.70;95.72;93814.09;6185376;23;20025;-91
2020/12/23 01:20:35;;;;;;;10.65;5.22;;;;;;;4.72;95.23;93807.06;6185406;23;20377;-90
2020/12/23 01:23:01;;;;;;;;;;;;;;;4.75;95.31;93805.97;6186539;23;20028;-91
2020/12/23 01:25:29;;;;;;;7.88;4.30;;;;;;;4.75;95.28;93804.22;6185575;23;19927;-90
2020/12/23 01:27:55;;;;;;;15.27;5.80;;;;;;;4.79;94.99;93810.59;6184991;23;20481;-91
2020/12/23 01:30:23;;;;;;;8.98;4.28;;;;;;;4.79;95.07;93804.69;6184650;23;20025;-88
2020/12/23 01:32:49;;;;;;;14.63;5.20;;;;;;;4.78;94.84;93800.56;6184678;23;20025;-88
2020/12/23 01:35:16;;;;;;;10.68;5.22;;;;;;;4.83;94.71;93803.44;6184942;23;20067;-89
2020/12/23 01:37:42;;;;;;;12.63;5.70;;;;;;;4.86;95.28;93803.09;6184642;23;20021;-88
2020/12/23 01:40:09;;;;;;;7.78;4.68;;;;;;;4.85;95.25;93806.59;6184359;23;20017;-89
2020/12/23 01:42:36;;;;;;;9.85;4.20;;;;;;;4.86;94.92;93790.38;6184637;23;20041;-89
2020/12/23 01:45:04;;;;;;;8.20;4.10;;;;;;;4.88;94.49;93791.03;6184783;23;20025;-88
2020/12/23 01:47:33;;;;;;;6.38;4.88;;;;;;;4.86;94.54;93780.19;6184577;23;20327;-89
2020/12/23 01:50:00;;;;;;;9.30;4.25;;;;;;;4.82;94.60;93774.63;6184673;23;20021;-90
2020/12/23 01:52:28;;;;;;;12.32;5.55;;;;;;;4.86;94.90;93766.69;6184491;23;20021;-89
2020/12/23 01:54:55;;;;;;;10.43;4.25;;;;;;;4.84;94.55;93779.56;6184225;23;20032;-88
2020/12/23 01:57:21;;;;;;;9.18;4.35;;;;;;;4.73;95.09;93756.97;6184441;23;20018;-88
2020/12/23 01:59:49;;;;;;;9.00;3.78;;;;;;;4.85;94.79;93768.44;6184739;23;20509;-89
2020/12/23 02:02:30;;;;;;;10.98;6.38;;;;;;;4.89;95.22;93768.91;6184258;23;20703;-88
2020/12/23 02:04:59;;;;;;;12.43;5.30;;;;;;;4.91;95.03;93759.38;6184411;23;20076;-88
2020/12/23 02:07:26;;;;;;;13.55;6.05;;;;;;;4.87;95.44;93766.53;6184200;23;20021;-88
2020/12/23 02:09:55;;;;;;;8.50;4.78;;;;;;;4.87;95.12;93765.72;6184385;23;20075;-88
2020/12/23 02:12:21;;;;;;;11.27;5.25;;;;;;;4.85;95.25;93768.44;6184157;23;20033;-90
2020/12/23 02:14:48;;;;;;;10.68;5.78;;;;;;;4.90;94.96;93768.75;6184033;23;20021;-88
2020/12/23 02:17:15;;;;;;;9.93;4.85;;;;;;;4.92;95.24;93774.47;6184048;23;20067;-88
2020/12/23 02:19:49;;;;;;;14.77;6.32;;;;;;;4.91;95.21;93760.16;6183843;23;20346;-88
2020/12/23 02:22:22;;;;;;;8.13;5.43;;;;;;;4.96;94.66;93759.69;6184504;23;20056;-88
2020/12/23 02:24:51;;;;;;;8.07;5.35;;;;;;;4.99;95.00;93766.97;6183815;23;20076;-88
2020/12/23 02:27:19;;;;;;;11.15;5.07;;;;;;;4.99;94.78;93758.56;6185622;23;20021;-89
2020/12/23 02:29:47;;;;;;;13.88;6.28;;;;;;;5.00;94.77;93758.38;6185009;23;20050;-89
2020/12/23 02:32:13;;;;;;;12.80;5.63;;;;;;;4.97;94.67;93752.81;6184469;23;20017;-90
2020/12/23 02:34:40;;;;;;;17.52;5.85;;;;;;;4.98;95.12;93762.84;6185368;23;20017;-88
2020/12/23 02:37:08;;;;;;;15.75;5.95;;;;;;;5.00;94.91;93760.16;6185037;23;20017;-89
2020/12/23 02:39:35;;;;;;;10.35;5.07;;;;;;;4.95;94.80;93760.63;6184329;23;20021;-90
2020/12/23 02:42:04;;;;;;;9.18;5.03;;;;;;;4.92;94.66;93759.19;6184390;23;20017;-88
2020/12/23 02:44:30;;;;;;;12.15;5.80;;;;;;;4.81;95.17;93750.13;6184400;23;20071;-88
2020/12/23 02:46:57;;;;;;;;;;;;;;;4.91;95.45;93761.91;6184671;23;20021;-89
2020/12/23 02:49:24;;;;;;;9.73;4.50;;;;;;;4.80;95.65;93755.38;6184497;23;19931;-89
2020/12/23 02:51:50;;;;;;;8.82;4.55;;;;;;;4.77;95.78;93746.31;6185139;23;20017;-92
2020/12/23 02:54:17;;;;;;;11.02;4.03;;;;;;;4.80;96.14;93745.19;6186734;23;20032;-91
2020/12/23 02:56:43;;;;;;;10.88;5.45;;;;;;;4.79;96.04;93736.78;6184871;23;20021;-89
2020/12/23 02:59:11;;;;;;;13.20;5.55;;;;;;;4.89;95.29;93746.00;6187979;23;20080;-90
2020/12/23 03:01:40;;;;;;;10.48;5.10;;;;;;;4.80;95.68;93728.19;6188239;23;20516;-91
2020/12/23 03:04:07;;;;;;;8.63;5.55;;;;;;;4.89;95.77;93738.34;6185175;23;20025;-91
2020/12/23 03:06:34;;;;;;;11.77;6.10;;;;;;;4.92;95.15;93738.81;6187127;23;20080;-90
2020/12/23 03:09:00;;;;;;;12.55;5.32;;;;;;;4.89;95.04;93734.06;6186436;23;20047;-91
2020/12/23 03:11:27;;;;;;;11.77;5.43;;;;;;;5.04;95.10;93748.66;6185890;23;20043;-91
2020/12/23 03:13:53;;;;;;;15.38;5.93;;;;;;;5.08;94.88;93749.94;6185579;23;20067;-90
2020/12/23 03:16:20;;;;;;;;;;;;;;;5.08;94.93;93753.28;6186657;23;20028;-89
2020/12/23 03:18:46;;;;;;;8.18;4.82;;;;;;;5.08;94.47;93760.13;6183920;23;19927;-88
2020/12/23 03:21:12;;;;;;;;;;;;;;;5.10;94.45;93752.34;6184394;23;20027;-90
2020/12/23 03:23:39;;;;;;;8.68;5.68;;;;;;;5.11;94.45;93759.81;6183542;23;20345;-89
2020/12/23 03:26:05;;;;;;;;;;;;;;;5.14;94.40;93769.66;6184525;23;20064;-91
2020/12/23 03:28:33;;;;;;;7.65;3.17;;;;;;;5.11;93.97;93754.72;6184365;23;20314;-91
2020/12/23 03:30:59;;;;;;;8.23;4.10;;;;;;;5.24;94.26;93769.50;6184181;23;20071;-90
2020/12/23 03:33:26;;;;;;;;;;;;;;;5.31;94.02;93767.09;6184029;23;20474;-91
2020/12/23 03:35:52;;;;;;;13.60;6.00;;;;;;;5.29;93.69;93766.47;6183753;23;20325;-90
2020/12/23 03:38:19;;;;;;;19.23;6.97;;;;;;;5.31;93.67;93760.25;6184156;23;20028;-91
2020/12/23 03:40:45;;;;;;;;;;;;;;;5.33;93.58;93768.50;6184294;23;20107;-90
2020/12/23 03:43:11;;;;;;;10.57;5.25;;;;;;;5.30;93.72;93770.59;6183931;23;19916;-92
2020/12/23 03:45:37;;;;;;;;;;;;;;;5.28;93.87;93769.97;6184379;23;20031;-91
2020/12/23 03:48:03;;;;;;;9.75;5.03;;;;;;;5.22;94.04;93772.22;6183558;23;19966;-91
2020/12/23 03:50:31;;;;;;;7.88;4.50;;;;;;;5.25;94.17;93777.91;6183950;23;20021;-90
2020/12/23 03:52:57;;;;;;;8.50;4.75;;;;;;;5.25;94.09;93778.72;6184000;23;20021;-90
2020/12/23 03:55:23;;;;;;;10.43;5.45;;;;;;;5.28;94.19;93773.28;6183900;23;20066;-90
2020/12/23 03:57:50;;;;;;;;;;;;;;;5.39;93.76;93781.56;6184125;23;20021;-90
2020/12/23 04:00:16;;;;;;;8.05;4.38;;;;;;;5.39;93.50;93779.81;6184078;23;19978;-90
2020/12/23 04:02:42;;;;;;;;;;;;;;;5.42;93.35;93783.78;6184628;23;20017;-91
2020/12/23 04:05:09;;;;;;;9.13;4.93;;;;;;;5.39;93.65;93782.34;6184044;23;19920;-91
2020/12/23 04:07:36;;;;;;;7.47;4.50;;;;;;;5.40;93.55;93781.41;6183576;23;20454;-91
2020/12/23 04:10:04;;;;;;;8.25;3.78;;;;;;;5.41;93.04;93782.19;6184123;23;20024;-91
2020/12/23 04:12:30;;;;;;;8.07;3.45;;;;;;;5.42;93.40;93779.47;6183501;23;20032;-91
2020/12/23 04:14:57;;;;;;;8.93;5.15;;;;;;;5.40;93.05;93778.84;6183601;23;20462;-90
2020/12/23 04:17:23;;;;;;;11.63;5.28;;;;;;;5.34;93.18;93759.13;6183562;23;20036;-90
2020/12/23 04:19:49;;;;;;;;;;;;;;;5.34;93.71;93777.75;6184220;23;20021;-90
2020/12/23 04:22:16;;;;;;;8.68;3.45;;;;;;;5.33;93.91;93783.00;6183720;23;19962;-91
2020/12/23 04:24:43;;;;;;;13.27;5.25;;;;;;;5.27;94.22;93779.34;6183914;23;20025;-90
2020/12/23 04:27:10;;;;;;;15.15;6.40;;;;;;;5.29;93.84;93777.47;6183354;23;20017;-91
2020/12/23 04:29:37;;;;;;;8.02;4.13;;;;;;;5.33;93.66;93777.91;6183935;23;20079;-91
2020/12/23 04:32:03;;;;;;;8.75;4.20;;;;;;;5.35;94.03;93781.09;6183679;23;20024;-92
2020/12/23 04:34:29;;;;;;;6.78;3.70;;;;;;;5.27;94.01;93761.53;6183694;23;20021;-90
2020/12/23 04:36:55;;;;;;;;;;;;;;;5.42;93.67;93783.78;6185393;23;20021;-90
2020/12/23 04:39:47;;;;;;;16.90;7.10;;;;;;;5.42;93.59;93781.25;6185888;23;20317;-91
2020/12/23 04:42:13;;;;;;;7.00;4.03;;;;;;;5.48;93.21;93783.13;6186112;23;20393;-91
2020/12/23 04:44:40;;;;;;;;;;;;;;;5.51;93.05;93780.25;6188524;23;20047;-90
2020/12/23 04:49:55;;;;;;;11.07;5.63;;;;;;;5.49;93.84;93784.72;6158624;23;20119;-91
2020/12/23 04:52:30;;;;;;;7.90;4.10;;;;;;;5.48;93.03;93776.25;6187286;23;20021;-90
2020/12/23 04:54:59;;;;;;;16.85;6.88;;;;;;;5.57;93.35;93777.06;6186385;23;20199;-90
2020/12/23 04:57:26;;;;;;;8.98;4.30;;;;;;;5.52;93.21;93764.00;6185570;23;20099;-91
2020/12/23 04:59:53;;;;;;;9.52;4.03;;;;;;;5.57;92.57;93771.97;6186190;23;20021;-92
2020/12/23 05:02:19;;;;;;;11.57;5.47;;;;;;;5.56;92.96;93772.13;6185460;23;20067;-91
2020/12/23 05:04:45;;;;;;;;;;;;;;;5.55;93.19;93770.53;6186866;23;20099;-90
2020/12/23 05:07:11;;;;;;;14.13;7.53;;;;;;;5.51;93.51;93764.94;6185452;23;19916;-91
2020/12/23 05:09:37;;;;;;;15.27;6.13;;;;;;;5.53;93.11;93767.34;6185561;23;20025;-91
2020/12/23 05:12:05;;;;;;;13.15;5.45;;;;;;;5.50;93.05;93763.38;6185656;23;20017;-90
2020/12/23 05:14:32;;;;;;;15.13;4.80;;;;;;;5.52;93.07;93765.75;6184994;23;20064;-91
2020/12/23 05:16:58;;;;;;;;;;;;;;;5.51;93.43;93770.03;6186721;23;20017;-91
2020/12/23 05:19:24;;;;;;;7.85;3.63;;;;;;;5.32;93.86;93776.34;6185593;23;19920;-91
2020/12/23 05:21:50;;;;;;;;;;;;;;;5.02;95.61;93781.94;6185990;23;20021;-91
2020/12/23 05:24:16;;;;;;;18.02;7.30;;;;;;;5.12;95.14;93768.22;6184757;23;19923;-91
2020/12/23 05:26:43;;;;;;;;;;;;;;;5.27;95.08;93774.25;6185731;23;20021;-91
2020/12/23 05:29:12;;;;;;;17.83;8.55;;;;;;;5.32;95.21;93771.25;6185544;23;19939;-91
2020/12/23 05:31:39;;;;;;;23.80;10.73;;;;;;;5.39;94.86;93774.72;6185372;23;20025;-90
2020/12/23 05:34:06;;;;;;;21.70;10.30;;;;;;;5.46;94.79;93774.88;6185104;23;20021;-91
2020/12/23 05:36:34;;;;;;;15.93;8.05;;;;;;;5.36;94.81;93780.13;6184973;23;20017;-91
2020/12/23 05:39:00;;;;;;;17.23;9.00;;;;;;;4.92;96.83;93783.88;6184372;23;20354;-91
2020/12/23 05:41:28;;;;;;;26.77;13.02;;;;;;;4.91;97.70;93795.00;6184828;23;20021;-91
2020/12/23 05:43:54;;;;;;;21.63;10.30;;;;;;;4.62;98.48;93786.88;6184511;23;20024;-90
2020/12/23 05:46:21;;;;;;;25.10;12.15;;;;;;;4.79;97.28;93790.25;6184676;23;20021;-90
2020/12/23 05:48:48;;;;;;;26.27;14.15;;;;;;;4.48;99.02;93803.56;6184146;23;20028;-91
2020/12/23 05:51:14;;;;;;;;;;;;;;;4.32;100.00;93801.81;6185105;23;20028;-91
2020/12/23 05:53:40;;;;;;;19.92;9.88;;;;;;;4.36;100.00;93805.59;6184225;23;19922;-91
2020/12/23 05:56:08;;;;;;;;;;;;;;;4.30;100.00;93805.44;6184753;23;20028;-91
2020/12/23 05:58:36;;;;;;;21.83;11.75;;;;;;;4.33;100.00;93811.03;6184039;23;19976;-92
2020/12/23 06:01:05;;;;;;;24.17;11.65;;;;;;;4.47;99.67;93801.16;6184462;23;20028;-90
2020/12/23 06:03:55;;;;;;;22.75;12.90;;;;;;;4.65;99.40;93819.66;6184497;23;20453;-92
2020/12/23 06:06:24;;;;;;;21.52;11.43;;;;;;;4.64;98.96;93818.03;6176389;23;20023;-91
2020/12/23 06:08:54;;;;;;;21.15;11.20;;;;;;;4.74;98.70;93805.19;6184442;23;20331;-91
2020/12/23 06:11:27;;;;;;;20.75;10.95;;;;;;;4.84;98.21;93822.84;6184803;23;20017;-91
2020/12/23 06:14:18;;;;;;;26.98;13.55;;;;;;;4.77;97.88;93816.81;6184405;23;20446;-91
2020/12/23 06:16:47;;;;;;;20.48;10.68;;;;;;;4.86;97.70;93815.84;6178614;23;20066;-91
2020/12/23 06:19:25;;;;;;;21.15;10.00;;;;;;;4.82;98.06;93822.22;6185656;23;20345;-91
2020/12/23 06:21:52;;;;;;;17.50;10.73;;;;;;;4.54;99.51;93825.06;6187752;23;20335;-91
2020/12/23 06:24:19;;;;;;;26.50;11.13;;;;;;;4.53;100.00;93820.91;6182143;23;20024;-91
2020/12/23 06:26:47;;;;;;;27.30;12.73;;;;;;;4.68;98.96;93826.19;6184158;23;20017;-91
2020/12/23 06:29:15;;;;;;;26.75;14.05;;;;;;;4.60;99.10;93831.25;6184553;23;20021;-91
2020/12/23 06:31:44;;;;;;;28.92;14.63;;;;;;;4.48;100.00;93833.28;6184010;23;20068;-91
2020/12/23 06:34:14;;;;;;;36.88;19.75;;;;;;;4.64;98.90;93824.91;6184284;23;20393;-90
2020/12/23 06:36:42;;;;;;;44.15;19.67;;;;;;;4.57;99.72;93813.78;6184066;23;20020;-93
2020/12/23 06:39:22;;;;;;;40.33;18.08;;;;;;;4.79;99.37;93828.41;6185044;23;20021;-90
2020/12/23 06:41:50;;;;;;;36.60;17.42;;;;;;;4.86;98.98;93825.22;6184472;23;20024;-91
2020/12/23 06:44:16;;;;;;;35.30;19.50;;;;;;;4.95;98.50;93827.63;6184193;23;20029;-91
2020/12/23 06:47:07;;;;;;;40.03;17.50;;;;;;;5.02;97.66;93830.31;6184513;23;20016;-90
2020/12/23 06:49:38;;;;;;;39.42;19.38;;;;;;;5.01;97.40;93833.84;6167493;23;20021;-91
2020/12/23 06:52:49;;;;;;;49.63;24.52;;;;;;;4.43;97.54;93743.94;6185085;23;20018;-91
2020/12/23 06:55:18;;;;;;;42.42;16.73;;;;;;;5.08;97.25;93834.78;6175484;23;20021;-90
2020/12/23 06:57:54;;;;;;;35.58;17.38;;;;;;;5.17;96.82;93834.75;6184233;23;20025;-91
2020/12/23 07:00:41;;;;;;;35.70;19.15;;;;;;;5.25;96.65;93844.16;6184088;23;20527;-91
2020/12/23 07:03:09;;;;;;;29.15;15.50;;;;;;;5.26;96.40;93835.53;6175004;23;20021;-91
2020/12/23 07:05:38;;;;;;;37.13;19.40;;;;;;;5.40;95.54;93847.63;6184346;23;20025;-91
2020/12/23 07:08:05;;;;;;;32.40;14.27;;;;;;;5.44;95.70;93853.19;6184016;23;20021;-91
2020/12/23 07:10:34;;;;;;;25.48;12.00;;;;;;;5.11;96.83;93854.03;6184562;23;20021;-91
2020/12/23 07:13:02;;;;;;;33.97;14.52;;;;;;;5.18;96.33;93844.78;6184765;23;20021;-90
2020/12/23 07:15:30;;;;;;;29.50;15.93;;;;;;;5.04;97.24;93861.50;6184107;23;20454;-91
2020/12/23 07:18:01;;;;;;;39.05;13.07;;;;;;;4.97;98.20;93867.38;6184232;23;20017;-91
2020/12/23 07:20:30;;;;;;;22.67;10.32;;;;;;;5.06;97.68;93859.59;6184288;23;20021;-91
2020/12/23 07:23:07;;;;;;;35.00;16.45;;;;;;;5.03;97.10;93870.09;6184356;23;20017;-91
2020/12/23 07:25:40;;;;;;;30.27;17.02;;;;;;;4.39;100.00;93868.09;6183925;23;20025;-91
2020/12/23 07:28:08;;;;;;;25.90;13.88;;;;;;;4.43;100.00;93882.09;6184100;23;20021;-92
2020/12/23 07:30:40;;;;;;;26.30;14.05;;;;;;;4.52;100.00;93878.63;6184438;23;20075;-90
2020/12/23 07:33:09;;;;;;;22.33;12.65;;;;;;;4.66;100.00;93873.88;6184735;23;20023;-90
2020/12/23 07:35:37;;;;;;;23.10;14.02;;;;;;;4.39;100.00;93884.16;6183922;23;20021;-90
2020/12/23 07:38:05;;;;;;;29.95;13.38;;;;;;;4.47;100.00;93882.56;6184573;23;20020;-91
2020/12/23 07:40:33;;;;;;;29.73;15.75;;;;;;;4.71;100.00;93863.25;6184248;23;20025;-92
2020/12/23 07:43:00;;;;;;;67.20;26.65;;;;;;;4.87;100.00;93880.28;6184247;23;20025;-92
2020/12/23 07:45:30;;;;;;;46.88;18.55;;;;;;;4.88;100.00;93882.69;6184124;23;20025;-91
2020/12/23 07:47:58;;;;;;;23.98;14.38;;;;;;;5.06;99.88;93877.41;6184038;23;20021;-91
2020/12/23 07:50:26;;;;;;;35.15;15.20;;;;;;;5.15;98.89;93874.88;6183429;23;20021;-90
2020/12/23 07:52:53;;;;;;;34.25;15.82;;;;;;;5.28;98.38;93880.28;6184522;23;20017;-90
2020/12/23 07:55:21;;;;;;;30.13;13.10;;;;;;;5.31;97.71;93872.34;6184748;23;20056;-90
2020/12/23 07:57:49;;;;;;;27.45;13.68;;;;;;;5.39;97.64;93880.91;6183890;23;20017;-91
2020/12/23 08:00:17;;;;;;;23.15;13.32;;;;;;;5.47;97.63;93884.25;6183618;23;20023;-90
2020/12/23 08:02:44;;;;;;;25.42;12.38;;;;;;;5.51;97.38;93879.63;6183851;23;20017;-91
2020/12/23 08:05:12;;;;;;;25.05;11.77;;;;;;;5.59;96.29;93878.81;6183148;23;20025;-91
2020/12/23 08:07:43;;;;;;;29.25;13.02;;;;;;;5.69;96.34;93879.44;6183577;23;20386;-90
2020/12/23 08:10:11;;;;;;;26.65;12.75;;;;;;;5.55;95.89;93883.44;6183824;23;20025;-91
2020/12/23 08:12:38;;;;;;;29.85;14.43;;;;;;;5.45;96.93;93890.47;6184351;23;20029;-91
2020/12/23 08:15:09;;;;;;;25.45;13.68;;;;;;;5.18;97.79;93893.19;6184562;23;20024;-90
2020/12/23 08:17:36;;;;;;;24.40;12.32;;;;;;;5.10;98.81;93883.00;6183849;23;20064;-92
2020/12/23 08:20:04;;;;;;;46.42;19.80;;;;;;;5.25;98.11;93887.44;6185464;23;20032;-90
2020/12/23 08:22:31;;;;;;;29.52;15.93;;;;;;;5.27;97.80;93886.34;6184998;23;20024;-90
2020/12/23 08:25:00;;;;;;;;;;;;;;;5.43;97.49;93889.84;6184299;23;20346;-88
2020/12/23 08:27:27;;;;;;;43.78;20.33;;;;;;;5.38;97.40;93889.53;6183781;23;19920;-89
2020/12/23 08:29:53;;;;;;;40.00;18.10;;;;;;;5.15;99.39;93885.88;6183604;23;20017;-91
2020/12/23 08:32:25;;;;;;;43.65;20.52;;;;;;;5.21;99.25;93885.25;6183490;23;20027;-90
2020/12/23 08:34:53;;;;;;;56.17;26.73;;;;;;;5.42;98.59;93886.47;6183551;23;20055;-89
2020/12/23 08:37:23;;;;;;;82.32;34.00;;;;;;;5.59;98.42;93889.81;6182985;23;20477;-91
2020/12/23 08:39:54;;;;;;;59.55;23.45;;;;;;;5.77;97.92;93890.56;6183444;23;20081;-90
2020/12/23 08:42:22;;;;;;;48.08;21.17;;;;;;;5.91;96.73;93881.44;6183156;23;20028;-91
2020/12/23 08:44:51;;;;;;;35.05;20.85;;;;;;;5.97;96.52;93888.47;6183428;23;20071;-90
2020/12/23 08:47:23;;;;;;;34.88;17.25;;;;;;;5.94;95.57;93878.59;6183689;23;20204;-90
2020/12/23 08:49:50;;;;;;;38.85;16.77;;;;;;;6.09;95.10;93886.38;6183777;23;20028;-90
2020/12/23 08:52:18;;;;;;;35.85;14.60;;;;;;;6.13;95.20;93877.44;6183508;23;20021;-91
2020/12/23 08:54:44;;;;;;;34.80;16.13;;;;;;;6.32;94.74;93865.22;6183445;23;20024;-90
2020/12/23 08:57:12;;;;;;;62.88;28.02;;;;;;;6.51;93.52;93857.19;6183346;23;20075;-90
2020/12/23 08:59:40;;;;;;;68.88;29.23;;;;;;;6.61;93.24;93859.50;6184830;23;20096;-89
2020/12/23 09:02:11;;;;;;;63.35;24.75;;;;;;;6.66;93.46;93841.13;6184999;23;20018;-89
2020/12/23 09:04:37;;;;;;;47.22;22.85;;;;;;;6.81;92.78;93843.75;6183489;23;20025;-90
2020/12/23 09:07:04;;;;;;;50.53;24.83;;;;;;;6.90;92.14;93844.50;6183212;23;20021;-89
2020/12/23 09:09:31;;;;;;;;;;;;;;;6.97;92.32;93844.56;6184066;23;20480;-90
2020/12/23 09:11:58;;;;;;;40.13;19.77;;;;;;;7.01;92.10;93848.38;6184535;23;20281;-90
2020/12/23 09:14:28;;;;;;;38.92;18.38;;;;;;;7.10;91.84;93842.25;6183636;23;20021;-91
2020/12/23 09:16:57;;;;;;;34.80;18.00;;;;;;;7.08;92.04;93839.06;6183668;23;20017;-89
2020/12/23 09:19:42;;;;;;;43.58;18.58;;;;;;;7.12;92.10;93836.97;6183043;23;20017;-91
2020/12/23 09:22:09;;;;;;;;;;;;;;;7.21;91.15;93836.75;6184222;23;20323;-90
2020/12/23 09:24:36;;;;;;;84.40;34.10;;;;;;;7.17;91.44;93832.94;6183326;23;20348;-90
2020/12/23 09:27:20;;;;;;;41.63;19.63;;;;;;;7.04;91.37;93825.06;6182733;23;20068;-89
2020/12/23 09:29:46;;;;;;;36.03;19.40;;;;;;;7.05;91.99;93829.22;6183253;23;20021;-91
2020/12/23 09:32:12;;;;;;;;;;;;;;;7.07;91.88;93822.16;6185821;23;20021;-90
2020/12/23 09:34:39;;;;;;;45.95;18.83;;;;;;;7.12;92.09;93808.88;6185103;23;19927;-90
2020/12/23 09:37:06;;;;;;;41.83;21.75;;;;;;;7.41;92.63;93813.22;6184337;23;20477;-90
2020/12/23 09:39:36;;;;;;;59.33;26.95;;;;;;;7.56;90.85;93818.38;6184269;23;20092;-90
2020/12/23 09:42:04;;;;;;;53.25;23.95;;;;;;;7.53;90.72;93810.22;6184816;23;20029;-89
2020/12/23 09:44:31;;;;;;;44.58;20.13;;;;;;;7.65;91.31;93808.84;6184253;23;20021;-89
2020/12/23 09:46:57;;;;;;;30.50;14.02;;;;;;;7.74;89.81;93804.44;6184897;23;20338;-91
2020/12/23 09:49:23;;;;;;;59.78;24.88;;;;;;;7.20;90.73;93817.28;6184733;23;20021;-91
2020/12/23 09:51:50;;;;;;;;;;;;;;;7.02;91.52;93820.13;6185186;23;20070;-90
2020/12/23 09:54:16;;;;;;;33.22;16.27;;;;;;;6.97;92.57;93812.19;6185169;23;19916;-91
2020/12/23 09:56:48;;;;;;;38.20;17.58;;;;;;;6.84;93.91;93817.84;6184801;23;20025;-92
2020/12/23 09:59:14;;;;;;;29.73;15.50;;;;;;;6.68;94.30;93818.78;6185185;23;20051;-90
2020/12/23 10:01:40;;;;;;;26.95;14.52;;;;;;;6.81;94.07;93806.22;6185828;23;20075;-90
2020/12/23 10:04:07;;;;;;;28.73;13.10;;;;;;;7.12;93.13;93799.44;6186965;23;20458;-89
2020/12/23 10:06:33;;;;;;;27.35;13.63;;;;;;;7.29;92.54;93789.06;6185136;23;20068;-90
2020/12/23 10:08:59;;;;;;;34.95;14.98;;;;;;;7.56;92.06;93792.00;6183604;23;20021;-89
2020/12/23 10:11:25;;;;;;;32.20;16.13;;;;;;;7.64;91.06;93783.44;6185436;23;20031;-89
2020/12/23 10:13:53;;;;;;;24.38;13.10;;;;;;;7.94;90.03;93791.09;6185290;23;20453;-88
2020/12/23 10:16:19;;;;;;;30.88;14.48;;;;;;;8.08;89.35;93790.28;6185339;23;20071;-90
2020/12/23 10:18:45;;;;;;;;;;;;;;;8.19;87.33;93788.25;6187006;23;20018;-90
2020/12/23 10:21:11;;;;;;;19.30;8.93;;;;;;;8.24;86.53;93789.28;6185294;23;19923;-91
2020/12/23 10:23:37;;;;;;;;;;;;;;;8.10;88.13;93785.78;6185230;23;20454;-91
2020/12/23 10:26:03;;;;;;;21.10;11.63;;;;;;;8.01;88.07;93779.19;6185017;23;19931;-90
2020/12/23 10:28:30;;;;;;;22.33;12.80;;;;;;;8.07;88.53;93765.69;6185883;23;20021;-90
2020/12/23 10:30:57;;;;;;;;;;;;;;;8.26;87.80;93774.53;6185842;23;20028;-91
2020/12/23 10:33:23;;;;;;;28.40;12.65;;;;;;;8.26;88.10;93771.97;6186516;23;19916;-91
2020/12/23 10:35:49;;;;;;;;;;;;;;;8.13;87.37;93764.94;6186933;23;20025;-90
2020/12/23 10:38:15;;;;;;;22.33;12.90;;;;;;;8.25;88.97;93767.81;6184798;23;19916;-90
2020/12/23 10:40:41;;;;;;;36.55;13.00;;;;;;;8.49;87.96;93759.97;6184739;23;20454;-91
2020/12/23 10:43:08;;;;;;;37.05;16.35;;;;;;;8.69;87.36;93758.44;6183770;23;20086;-91
2020/12/23 10:45:34;;;;;;;20.77;10.20;;;;;;;8.80;86.41;93754.56;6185570;23;20076;-90
2020/12/23 10:48:01;;;;;;;14.25;7.38;;;;;;;8.95;86.40;93748.56;6185002;23;20021;-91
2020/12/23 10:50:27;;;;;;;13.38;4.93;;;;;;;9.01;85.29;93741.91;6185367;23;20017;-91
2020/12/23 10:52:54;;;;;;;5.85;3.50;;;;;;;9.16;84.98;93741.81;6184688;23;20071;-90
2020/12/23 10:55:20;;;;;;;11.35;4.55;;;;;;;9.25;84.32;93752.72;6184922;23;20025;-90
2020/12/23 10:57:46;;;;;;;4.93;3.03;;;;;;;9.30;83.59;93750.41;6184445;23;21278;-91
2020/12/23 11:00:12;;;;;;;;;;;;;;;9.39;83.62;93753.59;6184773;23;20067;-88
2020/12/23 11:02:38;;;;;;;6.40;3.25;;;;;;;9.36;82.94;93747.06;6183984;23;19927;-88
2020/12/23 11:05:06;;;;;;;;;;;;;;;9.46;81.53;93742.41;6184870;23;20025;-89
2020/12/23 11:07:32;;;;;;;6.13;2.97;;;;;;;9.50;82.75;93745.38;6184691;23;19916;-91
2020/12/23 11:09:59;;;;;;;5.57;2.63;;;;;;;9.68;82.21;93744.06;6185355;23;20343;-91
2020/12/23 11:12:25;;;;;;;4.65;2.65;;;;;;;9.76;81.27;93739.56;6184848;23;20067;-90
2020/12/23 11:14:51;;;;;;;7.63;5.03;;;;;;;9.89;81.93;93733.72;6184899;23;20017;-90
2020/12/23 11:17:17;;;;;;;7.93;3.80;;;;;;;10.02;81.22;93725.25;6185132;23;20024;-91
2020/12/23 11:19:44;;;;;;;7.25;4.45;;;;;;;10.21;79.68;93735.78;6184796;23;20028;-90
2020/12/23 11:22:11;;;;;;;9.50;4.03;;;;;;;10.35;79.21;93740.91;6184509;23;20028;-91
2020/12/23 11:24:37;;;;;;;16.27;7.63;;;;;;;10.46;77.06;93742.94;6184128;23;20025;-90
2020/12/23 11:27:03;;;;;;;6.75;4.05;;;;;;;10.52;76.10;93731.88;6184481;23;20021;-92
2020/12/23 11:29:32;;;;;;;5.55;3.10;;;;;;;10.71;77.26;93731.31;6184087;23;20017;-91
2020/12/23 11:31:59;;;;;;;6.60;3.85;;;;;;;10.74;76.81;93724.00;6184070;23;20462;-90
2020/12/23 11:34:25;;;;;;;;;;;;;;;10.80;73.02;93730.16;6185177;23;20017;-90
2020/12/23 11:36:55;;;;;;;8.60;4.10;;;;;;;10.83;76.86;93717.69;6184613;23;19926;-90
2020/12/23 11:39:22;;;;;;;6.32;2.55;;;;;;;10.69;73.95;93710.94;6184692;23;20028;-90
2020/12/23 11:41:53;;;;;;;9.15;4.00;;;;;;;10.77;74.07;93710.78;6184631;23;20028;-90
2020/12/23 11:44:20;;;;;;;9.02;4.13;;;;;;;10.98;76.62;93711.56;6184517;23;20021;-90
2020/12/23 11:46:46;;;;;;;;;;;;;;;11.09;75.46;93708.38;6184456;23;20028;-90
2020/12/23 11:49:13;;;;;;;4.03;2.55;;;;;;;11.09;75.87;93705.00;6184317;23;19920;-88